Date,TemperatureHighF,TemperatureAvgF,TemperatureLowF,DewpointHighF,DewpointAvgF,DewpointLowF,HumidityHigh,HumidityAvg,HumidityLow,PressureMaxIn,PressureMinIn,WindSpeedMaxMPH,WindSpeedAvgMPH,GustSpeedMaxMPH,PrecipitationSumIn
2013-2-1,31.7,27.0,20.4,19.4,12.6,7.4,67,55,40,30.11,29.62,13,1,13,0.00
2013-2-2,29.9,24.0,15.4,19.8,11.5,6.9,85,60,38,30.26,30.05,10,1,10,0.00
2013-2-3,30.9,23.3,16.6,20.5,18.1,14.4,93,81,62,30.05,29.75,6,0,6,0.00
2013-2-4,29.2,22.0,14.0,16.9,12.9,9.0,93,70,44,29.95,29.75,14,1,14,0.00
2013-2-5,27.2,24.2,21.1,23.1,18.6,13.7,92,79,70,30.01,29.92,5,0,5,0.00
2013-2-6,36.8,30.0,24.2,27.7,20.0,4.8,94,69,38,30.31,29.90,12,1,12,0.00
2013-2-7,32.9,24.1,13.1,18.6,11.4,7.4,88,60,37,30.51,30.31,5,0,5,0.00
2013-2-8,32.4,28.0,21.5,31.3,24.4,10.6,96,87,53,30.44,29.57,16,1,16,0.00
2013-2-9,25.9,21.1,16.4,22.1,17.1,8.5,95,85,63,30.25,29.61,19,2,19,0.00
2013-2-10,36.0,16.8,-2.4,18.2,8.1,-5.6,89,71,34,30.43,30.24,7,0,7,0.00
2013-2-11,40.9,28.4,10.7,40.9,26.9,7.8,100,94,84,30.36,29.64,7,0,7,0.00
2013-2-12,44.6,37.2,30.2,39.6,30.7,25.7,99,79,56,29.91,29.64,13,1,13,0.00
2013-2-13,36.0,34.4,30.8,26.4,25.0,23.6,78,69,62,29.87,29.85,6,0,6,0.00
2013-2-14,43.0,33.1,25.1,29.8,25.9,23.2,95,77,46,29.99,29.71,1,0,0,0.00
2013-2-15,49.9,32.4,21.9,36.3,28.2,20.7,97,86,57,30.01,29.91,1,0,0,0.00
2013-2-16,37.6,33.8,28.7,32.2,28.7,22.1,97,82,61,29.94,29.68,7,0,7,0.00
2013-2-17,28.6,22.8,15.6,24.8,9.6,3.3,88,58,41,29.78,29.48,19,2,19,0.00
2013-2-18,30.6,20.6,14.3,12.6,5.1,0.2,84,53,32,30.19,29.78,15,2,15,0.00
2013-2-19,46.6,31.1,14.2,40.3,26.3,10.4,99,83,58,30.20,29.58,10,0,10,0.00
2013-2-20,37.1,30.9,25.3,36.8,19.6,11.7,99,64,45,29.83,29.58,16,1,16,0.00
2013-2-21,30.0,26.0,23.4,17.3,15.3,13.2,74,64,55,30.25,29.82,14,1,14,0.00
2013-2-22,40.7,30.3,15.9,29.1,22.1,13.8,94,73,49,30.38,30.24,9,0,9,0.00
2013-2-23,37.4,34.0,31.5,34.2,31.3,27.1,97,90,82,30.31,29.84,8,0,8,0.00
2013-2-24,40.6,36.1,32.8,38.7,35.0,31.8,98,96,91,29.89,29.69,7,0,7,0.00
2013-2-25,40.2,34.6,27.7,33.8,31.2,26.8,98,88,71,30.23,29.89,6,0,6,0.00
2013-2-26,41.4,36.3,31.9,34.3,30.8,26.9,98,82,63,30.31,30.07,9,0,9,0.00
2013-2-27,43.4,39.3,34.9,42.2,38.1,31.6,98,96,85,30.08,29.57,12,1,12,0.00
2013-2-28,45.3,36.9,32.0,40.9,35.4,31.3,99,95,81,29.62,29.52,4,0,4,0.00